METAR Data

Data at: 1740 UTC 21 Nov 2018

METAR for:KRKD (Rockland/Knox Cnty, ME, US)
Text:KRKD 211656Z AUTO 25010KT 10SM OVC095 00/M03 A2983 RMK AO2 SLP103 T00001028 FZRANO
Temperature: 0.0°C ( 32°F)
Dewpoint: -2.8°C ( 27°F) [RH = 81%]
Pressure (altimeter):29.83 inches Hg (1010.2 mb) [Sea level pressure: 1010.3 mb]
Winds:from the WSW (250 degrees) at 12 MPH (10 knots; 5.1 m/s)
Visibility:10 or more sm (16+ km)
Ceiling:9500 feet AGL
Clouds: overcast cloud deck at 9500 feet AGL
QC Flag:automated observation with no human augmentation